sensor_id;sensor_type;location;lat;lon;timestamp;temperature;humidity
61253;DHT22;47127;47.516;8.596;2023-01-15T00:00:50;9.70;99.90
61253;DHT22;47127;47.516;8.596;2023-01-15T00:03:15;9.80;99.90
61253;DHT22;47127;47.516;8.596;2023-01-15T00:05:41;9.80;99.90
61253;DHT22;47127;47.516;8.596;2023-01-15T00:08:06;9.90;99.90
61253;DHT22;47127;47.516;8.596;2023-01-15T00:10:32;10.00;99.90
61253;DHT22;47127;47.516;8.596;2023-01-15T00:12:58;10.00;99.90
61253;DHT22;47127;47.516;8.596;2023-01-15T00:15:24;10.20;99.90
61253;DHT22;47127;47.516;8.596;2023-01-15T00:17:49;10.30;99.90
61253;DHT22;47127;47.516;8.596;2023-01-15T00:20:15;10.30;99.90
61253;DHT22;47127;47.516;8.596;2023-01-15T00:22:41;10.40;99.90
61253;DHT22;47127;47.516;8.596;2023-01-15T00:25:08;10.40;99.90
61253;DHT22;47127;47.516;8.596;2023-01-15T00:27:52;10.40;99.90
61253;DHT22;47127;47.516;8.596;2023-01-15T00:30:17;10.40;99.90
61253;DHT22;47127;47.516;8.596;2023-01-15T00:32:43;10.30;99.90
61253;DHT22;47127;47.516;8.596;2023-01-15T00:35:15;10.40;99.90
61253;DHT22;47127;47.516;8.596;2023-01-15T00:37:41;10.40;99.90
61253;DHT22;47127;47.516;8.596;2023-01-15T00:40:07;10.40;99.90
61253;DHT22;47127;47.516;8.596;2023-01-15T00:42:32;10.40;99.90
61253;DHT22;47127;47.516;8.596;2023-01-15T00:44:58;10.40;99.90
61253;DHT22;47127;47.516;8.596;2023-01-15T00:47:29;10.40;99.90
61253;DHT22;47127;47.516;8.596;2023-01-15T00:49:55;10.40;99.90
61253;DHT22;47127;47.516;8.596;2023-01-15T00:52:20;10.40;99.90
61253;DHT22;47127;47.516;8.596;2023-01-15T00:54:46;10.50;99.90
61253;DHT22;47127;47.516;8.596;2023-01-15T00:57:13;10.50;99.90
61253;DHT22;47127;47.516;8.596;2023-01-15T00:59:38;10.60;99.90
61253;DHT22;47127;47.516;8.596;2023-01-15T01:02:04;10.70;99.90
61253;DHT22;47127;47.516;8.596;2023-01-15T01:04:29;10.70;99.90
61253;DHT22;47127;47.516;8.596;2023-01-15T01:06:55;10.70;99.90
61253;DHT22;47127;47.516;8.596;2023-01-15T01:09:20;10.70;99.90
61253;DHT22;47127;47.516;8.596;2023-01-15T01:11:48;10.80;99.90
61253;DHT22;47127;47.516;8.596;2023-01-15T01:14:14;10.80;99.90
61253;DHT22;47127;47.516;8.596;2023-01-15T01:16:40;10.80;99.90
61253;DHT22;47127;47.516;8.596;2023-01-15T01:19:09;10.80;99.90
61253;DHT22;47127;47.516;8.596;2023-01-15T01:21:36;10.80;99.90
61253;DHT22;47127;47.516;8.596;2023-01-15T01:24:03;10.90;99.90
61253;DHT22;47127;47.516;8.596;2023-01-15T01:26:29;10.90;99.90
61253;DHT22;47127;47.516;8.596;2023-01-15T01:28:55;10.80;99.90
61253;DHT22;47127;47.516;8.596;2023-01-15T01:31:22;10.90;99.90
61253;DHT22;47127;47.516;8.596;2023-01-15T01:33:52;10.80;99.90
61253;DHT22;47127;47.516;8.596;2023-01-15T01:36:19;10.80;99.90
61253;DHT22;47127;47.516;8.596;2023-01-15T01:38:47;10.80;99.90
61253;DHT22;47127;47.516;8.596;2023-01-15T01:41:17;10.70;99.90
61253;DHT22;47127;47.516;8.596;2023-01-15T01:44:01;10.70;99.90
61253;DHT22;47127;47.516;8.596;2023-01-15T01:46:31;10.70;99.90
61253;DHT22;47127;47.516;8.596;2023-01-15T01:49:07;10.70;99.90
61253;DHT22;47127;47.516;8.596;2023-01-15T01:51:34;10.70;99.90
61253;DHT22;47127;47.516;8.596;2023-01-15T01:54:01;10.70;99.90
61253;DHT22;47127;47.516;8.596;2023-01-15T01:56:28;10.70;99.90
61253;DHT22;47127;47.516;8.596;2023-01-15T01:58:55;10.70;99.90
61253;DHT22;47127;47.516;8.596;2023-01-15T02:01:23;10.70;99.90
61253;DHT22;47127;47.516;8.596;2023-01-15T02:03:49;10.80;99.90
61253;DHT22;47127;47.516;8.596;2023-01-15T02:06:15;10.70;99.90
61253;DHT22;47127;47.516;8.596;2023-01-15T02:08:41;10.80;99.90
61253;DHT22;47127;47.516;8.596;2023-01-15T02:11:10;10.80;99.90
61253;DHT22;47127;47.516;8.596;2023-01-15T02:13:39;10.70;99.90
61253;DHT22;47127;47.516;8.596;2023-01-15T02:30:11;10.60;99.90
61253;DHT22;47127;47.516;8.596;2023-01-15T02:32:45;10.60;99.90
61253;DHT22;47127;47.516;8.596;2023-01-15T02:35:19;10.60;99.90
61253;DHT22;47127;47.516;8.596;2023-01-15T02:37:49;10.50;99.90
61253;DHT22;47127;47.516;8.596;2023-01-15T02:40:19;10.50;99.90
61253;DHT22;47127;47.516;8.596;2023-01-15T02:42:47;10.60;99.90
61253;DHT22;47127;47.516;8.596;2023-01-15T02:45:18;10.50;99.90
61253;DHT22;47127;47.516;8.596;2023-01-15T02:47:48;10.40;99.90
61253;DHT22;47127;47.516;8.596;2023-01-15T02:50:17;10.50;99.90
61253;DHT22;47127;47.516;8.596;2023-01-15T02:52:48;10.40;99.90
61253;DHT22;47127;47.516;8.596;2023-01-15T02:55:19;10.40;99.90
61253;DHT22;47127;47.516;8.596;2023-01-15T02:57:47;10.40;99.90
61253;DHT22;47127;47.516;8.596;2023-01-15T03:00:16;10.40;99.90
61253;DHT22;47127;47.516;8.596;2023-01-15T03:02:48;10.40;99.90
61253;DHT22;47127;47.516;8.596;2023-01-15T03:05:26;10.40;99.90
61253;DHT22;47127;47.516;8.596;2023-01-15T03:07:59;10.30;99.90
61253;DHT22;47127;47.516;8.596;2023-01-15T03:10:38;10.30;99.90
61253;DHT22;47127;47.516;8.596;2023-01-15T03:13:09;10.30;99.90
61253;DHT22;47127;47.516;8.596;2023-01-15T03:16:05;10.40;99.90
61253;DHT22;47127;47.516;8.596;2023-01-15T03:19:01;10.30;99.90
61253;DHT22;47127;47.516;8.596;2023-01-15T03:24:23;10.30;99.90
61253;DHT22;47127;47.516;8.596;2023-01-15T03:26:52;10.40;99.90
61253;DHT22;47127;47.516;8.596;2023-01-15T03:29:18;10.30;99.90
61253;DHT22;47127;47.516;8.596;2023-01-15T03:31:44;10.30;99.90
61253;DHT22;47127;47.516;8.596;2023-01-15T03:34:10;10.30;99.90
61253;DHT22;47127;47.516;8.596;2023-01-15T03:36:36;10.30;99.90
61253;DHT22;47127;47.516;8.596;2023-01-15T03:39:03;10.40;99.90
61253;DHT22;47127;47.516;8.596;2023-01-15T03:41:55;10.30;99.90
61253;DHT22;47127;47.516;8.596;2023-01-15T03:44:31;10.30;99.90
61253;DHT22;47127;47.516;8.596;2023-01-15T03:47:03;10.30;99.90
61253;DHT22;47127;47.516;8.596;2023-01-15T03:49:50;10.30;99.90
61253;DHT22;47127;47.516;8.596;2023-01-15T03:52:51;10.30;99.90
61253;DHT22;47127;47.516;8.596;2023-01-15T03:55:37;10.20;99.90
61253;DHT22;47127;47.516;8.596;2023-01-15T03:58:16;10.30;99.90
61253;DHT22;47127;47.516;8.596;2023-01-15T04:00:47;10.20;99.90
61253;DHT22;47127;47.516;8.596;2023-01-15T04:03:15;10.20;99.90
61253;DHT22;47127;47.516;8.596;2023-01-15T04:05:41;10.20;99.90
61253;DHT22;47127;47.516;8.596;2023-01-15T04:08:08;10.20;99.90
61253;DHT22;47127;47.516;8.596;2023-01-15T04:10:34;10.20;99.90
61253;DHT22;47127;47.516;8.596;2023-01-15T04:13:00;10.20;99.90
61253;DHT22;47127;47.516;8.596;2023-01-15T04:15:25;10.30;99.90
61253;DHT22;47127;47.516;8.596;2023-01-15T04:17:51;10.30;99.90
61253;DHT22;47127;47.516;8.596;2023-01-15T04:20:16;10.30;99.90
61253;DHT22;47127;47.516;8.596;2023-01-15T04:22:42;10.30;99.90
61253;DHT22;47127;47.516;8.596;2023-01-15T04:25:08;10.20;99.90
61253;DHT22;47127;47.516;8.596;2023-01-15T04:27:34;10.20;99.90
61253;DHT22;47127;47.516;8.596;2023-01-15T04:29:59;10.20;99.90
61253;DHT22;47127;47.516;8.596;2023-01-15T04:32:25;10.20;99.90
61253;DHT22;47127;47.516;8.596;2023-01-15T04:34:50;10.20;99.90
61253;DHT22;47127;47.516;8.596;2023-01-15T04:37:16;10.20;99.90
61253;DHT22;47127;47.516;8.596;2023-01-15T04:39:42;10.20;99.90
61253;DHT22;47127;47.516;8.596;2023-01-15T04:42:12;10.20;99.90
61253;DHT22;47127;47.516;8.596;2023-01-15T04:44:56;10.20;99.90
61253;DHT22;47127;47.516;8.596;2023-01-15T04:47:22;10.20;99.90
61253;DHT22;47127;47.516;8.596;2023-01-15T04:49:47;10.20;99.90
61253;DHT22;47127;47.516;8.596;2023-01-15T04:52:14;10.20;99.90
61253;DHT22;47127;47.516;8.596;2023-01-15T04:54:39;10.20;99.90
61253;DHT22;47127;47.516;8.596;2023-01-15T04:57:05;10.30;99.90
61253;DHT22;47127;47.516;8.596;2023-01-15T04:59:30;10.30;99.90
61253;DHT22;47127;47.516;8.596;2023-01-15T05:01:56;10.20;99.90
61253;DHT22;47127;47.516;8.596;2023-01-15T05:04:21;10.30;99.90
61253;DHT22;47127;47.516;8.596;2023-01-15T05:06:47;10.30;99.90
61253;DHT22;47127;47.516;8.596;2023-01-15T05:09:13;10.30;99.90
61253;DHT22;47127;47.516;8.596;2023-01-15T05:11:39;10.60;99.90
61253;DHT22;47127;47.516;8.596;2023-01-15T05:14:05;10.50;99.90
61253;DHT22;47127;47.516;8.596;2023-01-15T05:16:31;10.60;99.90
61253;DHT22;47127;47.516;8.596;2023-01-15T05:19:00;10.60;99.90
61253;DHT22;47127;47.516;8.596;2023-01-15T05:21:31;10.70;99.90
61253;DHT22;47127;47.516;8.596;2023-01-15T05:23:57;10.80;99.90
61253;DHT22;47127;47.516;8.596;2023-01-15T05:26:25;10.80;99.90
61253;DHT22;47127;47.516;8.596;2023-01-15T05:28:56;10.80;99.90
61253;DHT22;47127;47.516;8.596;2023-01-15T05:31:23;10.90;99.90
61253;DHT22;47127;47.516;8.596;2023-01-15T05:33:50;10.90;99.90
61253;DHT22;47127;47.516;8.596;2023-01-15T05:36:20;10.90;99.90
61253;DHT22;47127;47.516;8.596;2023-01-15T05:38:46;10.90;99.90
61253;DHT22;47127;47.516;8.596;2023-01-15T05:41:15;10.80;99.90
61253;DHT22;47127;47.516;8.596;2023-01-15T05:44:02;10.80;99.90
61253;DHT22;47127;47.516;8.596;2023-01-15T05:46:28;10.90;99.90
61253;DHT22;47127;47.516;8.596;2023-01-15T05:48:53;10.90;99.90
61253;DHT22;47127;47.516;8.596;2023-01-15T05:51:19;10.80;99.90
61253;DHT22;47127;47.516;8.596;2023-01-15T05:53:45;10.80;99.90
61253;DHT22;47127;47.516;8.596;2023-01-15T05:56:11;10.70;99.90
61253;DHT22;47127;47.516;8.596;2023-01-15T05:58:37;10.80;99.90
61253;DHT22;47127;47.516;8.596;2023-01-15T06:01:10;10.80;99.90
61253;DHT22;47127;47.516;8.596;2023-01-15T06:03:36;10.80;99.90
61253;DHT22;47127;47.516;8.596;2023-01-15T06:06:02;11.80;99.90
61253;DHT22;47127;47.516;8.596;2023-01-15T06:08:28;10.70;99.90
61253;DHT22;47127;47.516;8.596;2023-01-15T06:10:53;10.60;99.90
61253;DHT22;47127;47.516;8.596;2023-01-15T06:13:19;10.60;99.90
61253;DHT22;47127;47.516;8.596;2023-01-15T06:15:44;10.60;99.90
61253;DHT22;47127;47.516;8.596;2023-01-15T06:18:10;10.60;99.90
61253;DHT22;47127;47.516;8.596;2023-01-15T06:20:37;10.60;99.90
61253;DHT22;47127;47.516;8.596;2023-01-15T06:23:03;10.60;99.90
61253;DHT22;47127;47.516;8.596;2023-01-15T06:25:28;10.60;99.90
61253;DHT22;47127;47.516;8.596;2023-01-15T06:27:54;10.70;99.90
61253;DHT22;47127;47.516;8.596;2023-01-15T06:30:20;10.60;99.90
61253;DHT22;47127;47.516;8.596;2023-01-15T06:32:45;10.60;99.90
61253;DHT22;47127;47.516;8.596;2023-01-15T06:35:11;10.60;99.90
61253;DHT22;47127;47.516;8.596;2023-01-15T06:37:38;10.60;99.90
61253;DHT22;47127;47.516;8.596;2023-01-15T06:40:04;10.60;99.90
61253;DHT22;47127;47.516;8.596;2023-01-15T06:42:30;10.60;99.90
61253;DHT22;47127;47.516;8.596;2023-01-15T06:45:14;10.50;99.90
61253;DHT22;47127;47.516;8.596;2023-01-15T06:47:58;10.60;99.90
61253;DHT22;47127;47.516;8.596;2023-01-15T06:50:24;10.50;99.90
61253;DHT22;47127;47.516;8.596;2023-01-15T06:52:50;10.50;99.90
61253;DHT22;47127;47.516;8.596;2023-01-15T06:55:16;10.50;99.90
61253;DHT22;47127;47.516;8.596;2023-01-15T06:57:43;10.40;99.90
61253;DHT22;47127;47.516;8.596;2023-01-15T07:00:09;10.40;99.90
61253;DHT22;47127;47.516;8.596;2023-01-15T07:02:35;10.50;99.90
61253;DHT22;47127;47.516;8.596;2023-01-15T07:05:01;10.40;99.90
61253;DHT22;47127;47.516;8.596;2023-01-15T07:07:27;10.40;99.90
61253;DHT22;47127;47.516;8.596;2023-01-15T07:09:53;10.40;99.90
61253;DHT22;47127;47.516;8.596;2023-01-15T07:12:19;10.50;99.90
61253;DHT22;47127;47.516;8.596;2023-01-15T07:14:46;10.40;99.90
61253;DHT22;47127;47.516;8.596;2023-01-15T07:17:12;10.50;99.90
61253;DHT22;47127;47.516;8.596;2023-01-15T07:19:37;10.50;99.90
61253;DHT22;47127;47.516;8.596;2023-01-15T07:22:04;10.50;99.90
61253;DHT22;47127;47.516;8.596;2023-01-15T07:24:29;10.50;99.90
61253;DHT22;47127;47.516;8.596;2023-01-15T07:26:55;10.50;99.90
61253;DHT22;47127;47.516;8.596;2023-01-15T07:29:21;10.50;99.90
61253;DHT22;47127;47.516;8.596;2023-01-15T07:31:47;10.50;99.90
61253;DHT22;47127;47.516;8.596;2023-01-15T07:34:13;10.50;99.90
61253;DHT22;47127;47.516;8.596;2023-01-15T07:36:39;10.50;99.90
61253;DHT22;47127;47.516;8.596;2023-01-15T07:39:05;10.50;99.90
61253;DHT22;47127;47.516;8.596;2023-01-15T07:41:31;10.50;99.90
61253;DHT22;47127;47.516;8.596;2023-01-15T07:44:15;10.50;99.90
61253;DHT22;47127;47.516;8.596;2023-01-15T07:47:00;10.60;99.90
61253;DHT22;47127;47.516;8.596;2023-01-15T07:49:44;10.50;99.90
61253;DHT22;47127;47.516;8.596;2023-01-15T07:52:28;10.60;99.90
61253;DHT22;47127;47.516;8.596;2023-01-15T07:54:54;10.60;99.90
61253;DHT22;47127;47.516;8.596;2023-01-15T07:57:20;10.60;99.90
61253;DHT22;47127;47.516;8.596;2023-01-15T07:59:47;10.60;99.90
61253;DHT22;47127;47.516;8.596;2023-01-15T08:02:13;10.70;99.90
61253;DHT22;47127;47.516;8.596;2023-01-15T08:04:39;10.70;99.90
61253;DHT22;47127;47.516;8.596;2023-01-15T08:07:05;10.80;99.90
61253;DHT22;47127;47.516;8.596;2023-01-15T08:09:31;10.80;99.90
61253;DHT22;47127;47.516;8.596;2023-01-15T08:12:01;10.80;99.90
61253;DHT22;47127;47.516;8.596;2023-01-15T08:14:46;10.80;99.90
61253;DHT22;47127;47.516;8.596;2023-01-15T08:17:33;10.80;99.90
61253;DHT22;47127;47.516;8.596;2023-01-15T08:19:59;10.80;99.90
61253;DHT22;47127;47.516;8.596;2023-01-15T08:22:25;10.70;99.90
61253;DHT22;47127;47.516;8.596;2023-01-15T08:24:50;10.20;99.90
61253;DHT22;47127;47.516;8.596;2023-01-15T08:27:16;10.00;99.90
61253;DHT22;47127;47.516;8.596;2023-01-15T08:29:41;9.70;99.90
61253;DHT22;47127;47.516;8.596;2023-01-15T08:32:07;9.40;99.90
61253;DHT22;47127;47.516;8.596;2023-01-15T08:34:33;9.00;99.90
61253;DHT22;47127;47.516;8.596;2023-01-15T08:36:58;8.90;99.90
61253;DHT22;47127;47.516;8.596;2023-01-15T08:39:28;8.80;99.90
61253;DHT22;47127;47.516;8.596;2023-01-15T08:41:54;8.60;99.90
61253;DHT22;47127;47.516;8.596;2023-01-15T08:44:20;8.30;99.90
61253;DHT22;47127;47.516;8.596;2023-01-15T08:46:47;8.20;99.90
61253;DHT22;47127;47.516;8.596;2023-01-15T08:49:13;8.20;99.90
61253;DHT22;47127;47.516;8.596;2023-01-15T08:51:38;8.00;99.90
61253;DHT22;47127;47.516;8.596;2023-01-15T08:54:04;8.00;99.90
61253;DHT22;47127;47.516;8.596;2023-01-15T08:56:29;8.00;99.90
61253;DHT22;47127;47.516;8.596;2023-01-15T08:58:55;8.10;99.90
61253;DHT22;47127;47.516;8.596;2023-01-15T09:01:20;8.00;99.90
61253;DHT22;47127;47.516;8.596;2023-01-15T09:03:46;7.90;99.90
61253;DHT22;47127;47.516;8.596;2023-01-15T09:06:11;7.70;99.90
61253;DHT22;47127;47.516;8.596;2023-01-15T09:08:38;7.60;99.90
61253;DHT22;47127;47.516;8.596;2023-01-15T09:11:07;7.60;99.90
61253;DHT22;47127;47.516;8.596;2023-01-15T09:13:37;7.70;99.90
61253;DHT22;47127;47.516;8.596;2023-01-15T09:16:06;7.60;99.90
61253;DHT22;47127;47.516;8.596;2023-01-15T09:18:31;7.40;99.90
61253;DHT22;47127;47.516;8.596;2023-01-15T09:20:57;7.40;99.90
61253;DHT22;47127;47.516;8.596;2023-01-15T09:23:23;7.30;99.90
61253;DHT22;47127;47.516;8.596;2023-01-15T09:25:54;7.30;99.90
61253;DHT22;47127;47.516;8.596;2023-01-15T09:28:19;7.20;99.90
61253;DHT22;47127;47.516;8.596;2023-01-15T09:30:45;7.20;99.90
61253;DHT22;47127;47.516;8.596;2023-01-15T09:33:11;7.00;99.90
61253;DHT22;47127;47.516;8.596;2023-01-15T09:35:36;7.00;99.90
61253;DHT22;47127;47.516;8.596;2023-01-15T09:38:02;6.80;99.90
61253;DHT22;47127;47.516;8.596;2023-01-15T09:40:33;6.80;99.90
61253;DHT22;47127;47.516;8.596;2023-01-15T09:43:09;6.80;99.90
61253;DHT22;47127;47.516;8.596;2023-01-15T09:45:48;6.80;99.90
61253;DHT22;47127;47.516;8.596;2023-01-15T09:48:37;6.80;99.90
61253;DHT22;47127;47.516;8.596;2023-01-15T09:51:34;6.80;99.90
61253;DHT22;47127;47.516;8.596;2023-01-15T09:54:24;6.60;99.90
61253;DHT22;47127;47.516;8.596;2023-01-15T09:56:53;6.60;99.90
61253;DHT22;47127;47.516;8.596;2023-01-15T09:59:33;6.60;99.90
61253;DHT22;47127;47.516;8.596;2023-01-15T10:02:03;6.50;99.90
61253;DHT22;47127;47.516;8.596;2023-01-15T10:04:48;6.50;99.90
61253;DHT22;47127;47.516;8.596;2023-01-15T10:07:32;6.50;99.90
61253;DHT22;47127;47.516;8.596;2023-01-15T10:10:06;6.40;99.90
61253;DHT22;47127;47.516;8.596;2023-01-15T10:12:35;6.30;99.90
61253;DHT22;47127;47.516;8.596;2023-01-15T10:17:48;6.30;99.90
61253;DHT22;47127;47.516;8.596;2023-01-15T10:23:28;6.20;99.90
61253;DHT22;47127;47.516;8.596;2023-01-15T10:28:28;6.10;99.90
61253;DHT22;47127;47.516;8.596;2023-01-15T10:30:56;6.10;99.90
61253;DHT22;47127;47.516;8.596;2023-01-15T10:36:09;6.10;99.90
61253;DHT22;47127;47.516;8.596;2023-01-15T10:44:19;6.10;99.90
61253;DHT22;47127;47.516;8.596;2023-01-15T10:46:52;6.10;99.90
61253;DHT22;47127;47.516;8.596;2023-01-15T10:49:20;6.10;99.90
61253;DHT22;47127;47.516;8.596;2023-01-15T10:51:49;6.00;99.90
61253;DHT22;47127;47.516;8.596;2023-01-15T10:54:45;5.90;99.90
61253;DHT22;47127;47.516;8.596;2023-01-15T10:57:22;5.90;99.90
61253;DHT22;47127;47.516;8.596;2023-01-15T10:59:58;5.80;99.90
61253;DHT22;47127;47.516;8.596;2023-01-15T11:02:31;5.70;99.90
61253;DHT22;47127;47.516;8.596;2023-01-15T11:05:00;5.70;99.90
61253;DHT22;47127;47.516;8.596;2023-01-15T11:07:40;5.70;99.90
61253;DHT22;47127;47.516;8.596;2023-01-15T11:10:09;5.80;99.90
61253;DHT22;47127;47.516;8.596;2023-01-15T11:12:53;5.90;99.90
61253;DHT22;47127;47.516;8.596;2023-01-15T11:15:38;6.00;99.90
61253;DHT22;47127;47.516;8.596;2023-01-15T11:18:27;5.90;99.90
61253;DHT22;47127;47.516;8.596;2023-01-15T11:21:15;5.70;99.90
61253;DHT22;47127;47.516;8.596;2023-01-15T11:23:42;5.80;99.90
61253;DHT22;47127;47.516;8.596;2023-01-15T11:26:08;5.90;99.90
61253;DHT22;47127;47.516;8.596;2023-01-15T11:28:41;5.80;99.90
61253;DHT22;47127;47.516;8.596;2023-01-15T11:31:11;5.80;99.90
61253;DHT22;47127;47.516;8.596;2023-01-15T11:33:38;5.80;99.90
61253;DHT22;47127;47.516;8.596;2023-01-15T11:36:06;5.70;99.90
61253;DHT22;47127;47.516;8.596;2023-01-15T11:38:44;5.80;99.90
61253;DHT22;47127;47.516;8.596;2023-01-15T11:44:19;5.50;99.90
61253;DHT22;47127;47.516;8.596;2023-01-15T11:47:13;5.50;99.90
61253;DHT22;47127;47.516;8.596;2023-01-15T11:49:57;5.40;99.90
61253;DHT22;47127;47.516;8.596;2023-01-15T11:52:45;5.30;99.90
61253;DHT22;47127;47.516;8.596;2023-01-15T11:55:20;5.40;99.90
61253;DHT22;47127;47.516;8.596;2023-01-15T11:57:46;5.40;99.90
61253;DHT22;47127;47.516;8.596;2023-01-15T12:00:27;5.40;99.90
61253;DHT22;47127;47.516;8.596;2023-01-15T12:02:58;5.40;99.90
61253;DHT22;47127;47.516;8.596;2023-01-15T12:05:34;5.40;99.90
61253;DHT22;47127;47.516;8.596;2023-01-15T12:08:03;5.30;99.90
61253;DHT22;47127;47.516;8.596;2023-01-15T12:11:03;5.10;99.90
61253;DHT22;47127;47.516;8.596;2023-01-15T12:19:33;5.40;99.90
61253;DHT22;47127;47.516;8.596;2023-01-15T12:36:20;5.20;99.90
61253;DHT22;47127;47.516;8.596;2023-01-15T12:38:59;5.30;99.90
61253;DHT22;47127;47.516;8.596;2023-01-15T12:41:38;5.40;99.90
61253;DHT22;47127;47.516;8.596;2023-01-15T12:44:51;5.40;99.90
61253;DHT22;47127;47.516;8.596;2023-01-15T12:47:55;5.30;99.90
61253;DHT22;47127;47.516;8.596;2023-01-15T12:50:44;5.30;99.90
61253;DHT22;47127;47.516;8.596;2023-01-15T12:53:19;5.30;99.90
61253;DHT22;47127;47.516;8.596;2023-01-15T12:56:04;5.20;99.90
61253;DHT22;47127;47.516;8.596;2023-01-15T12:58:43;5.10;99.90
61253;DHT22;47127;47.516;8.596;2023-01-15T13:06:51;5.00;99.90
61253;DHT22;47127;47.516;8.596;2023-01-15T13:09:36;5.10;99.90
61253;DHT22;47127;47.516;8.596;2023-01-15T13:12:06;5.20;99.90
61253;DHT22;47127;47.516;8.596;2023-01-15T13:14:34;5.30;99.90
61253;DHT22;47127;47.516;8.596;2023-01-15T13:22:57;5.50;99.90
61253;DHT22;47127;47.516;8.596;2023-01-15T13:28:30;5.50;99.90
61253;DHT22;47127;47.516;8.596;2023-01-15T13:31:18;5.50;99.90
61253;DHT22;47127;47.516;8.596;2023-01-15T13:33:52;5.60;99.90
61253;DHT22;47127;47.516;8.596;2023-01-15T13:36:28;5.60;99.90
61253;DHT22;47127;47.516;8.596;2023-01-15T13:38:59;5.50;99.90
61253;DHT22;47127;47.516;8.596;2023-01-15T13:41:28;5.50;99.90
61253;DHT22;47127;47.516;8.596;2023-01-15T13:44:24;5.40;99.90
61253;DHT22;47127;47.516;8.596;2023-01-15T13:49:31;5.30;99.90
61253;DHT22;47127;47.516;8.596;2023-01-15T13:51:57;5.30;99.90
61253;DHT22;47127;47.516;8.596;2023-01-15T13:54:29;5.40;99.90
61253;DHT22;47127;47.516;8.596;2023-01-15T13:57:22;5.20;99.90
61253;DHT22;47127;47.516;8.596;2023-01-15T13:59:48;5.20;99.90
61253;DHT22;47127;47.516;8.596;2023-01-15T14:02:29;5.30;99.90
61253;DHT22;47127;47.516;8.596;2023-01-15T14:04:57;5.40;99.90
61253;DHT22;47127;47.516;8.596;2023-01-15T14:07:34;5.40;99.90
61253;DHT22;47127;47.516;8.596;2023-01-15T14:10:23;5.30;99.90
61253;DHT22;47127;47.516;8.596;2023-01-15T14:24:19;5.30;99.90
61253;DHT22;47127;47.516;8.596;2023-01-15T14:27:02;5.40;99.90
61253;DHT22;47127;47.516;8.596;2023-01-15T14:29:46;5.40;99.90
61253;DHT22;47127;47.516;8.596;2023-01-15T14:32:40;5.50;99.90
61253;DHT22;47127;47.516;8.596;2023-01-15T14:35:18;5.50;99.90
61253;DHT22;47127;47.516;8.596;2023-01-15T14:37:51;5.50;99.90
61253;DHT22;47127;47.516;8.596;2023-01-15T14:40:23;5.60;99.90
61253;DHT22;47127;47.516;8.596;2023-01-15T14:42:52;5.70;99.90
61253;DHT22;47127;47.516;8.596;2023-01-15T14:45:35;5.70;99.90
61253;DHT22;47127;47.516;8.596;2023-01-15T14:48:19;5.80;99.90
61253;DHT22;47127;47.516;8.596;2023-01-15T14:50:45;5.80;99.90
61253;DHT22;47127;47.516;8.596;2023-01-15T14:55:52;5.90;99.90
61253;DHT22;47127;47.516;8.596;2023-01-15T14:58:36;5.90;99.90
61253;DHT22;47127;47.516;8.596;2023-01-15T15:03:49;6.00;99.90
61253;DHT22;47127;47.516;8.596;2023-01-15T15:06:16;5.90;99.90
61253;DHT22;47127;47.516;8.596;2023-01-15T15:08:42;6.20;99.90
61253;DHT22;47127;47.516;8.596;2023-01-15T15:11:17;6.70;99.90
61253;DHT22;47127;47.516;8.596;2023-01-15T15:14:04;7.50;99.90
61253;DHT22;47127;47.516;8.596;2023-01-15T15:16:35;8.20;99.90
61253;DHT22;47127;47.516;8.596;2023-01-15T15:19:16;8.50;99.90
61253;DHT22;47127;47.516;8.596;2023-01-15T15:21:44;8.10;99.90
61253;DHT22;47127;47.516;8.596;2023-01-15T15:26:40;7.10;99.90
61253;DHT22;47127;47.516;8.596;2023-01-15T15:29:15;6.60;99.90
61253;DHT22;47127;47.516;8.596;2023-01-15T15:31:50;6.40;99.90
61253;DHT22;47127;47.516;8.596;2023-01-15T15:34:31;6.10;99.90
61253;DHT22;47127;47.516;8.596;2023-01-15T15:37:01;6.00;99.90
61253;DHT22;47127;47.516;8.596;2023-01-15T15:39:44;6.00;99.90
61253;DHT22;47127;47.516;8.596;2023-01-15T15:42:23;5.90;99.90
61253;DHT22;47127;47.516;8.596;2023-01-15T15:45:19;5.80;99.90
61253;DHT22;47127;47.516;8.596;2023-01-15T15:48:30;5.70;99.90
61253;DHT22;47127;47.516;8.596;2023-01-15T15:51:24;5.80;99.90
61253;DHT22;47127;47.516;8.596;2023-01-15T15:57:16;5.80;99.90
61253;DHT22;47127;47.516;8.596;2023-01-15T15:59:47;5.70;99.90
61253;DHT22;47127;47.516;8.596;2023-01-15T16:02:33;5.60;99.90
61253;DHT22;47127;47.516;8.596;2023-01-15T16:05:23;5.60;99.90
61253;DHT22;47127;47.516;8.596;2023-01-15T16:07:49;5.60;99.90
61253;DHT22;47127;47.516;8.596;2023-01-15T16:10:31;5.50;99.90
61253;DHT22;47127;47.516;8.596;2023-01-15T16:13:00;5.40;99.90
61253;DHT22;47127;47.516;8.596;2023-01-15T16:15:30;5.40;99.90
61253;DHT22;47127;47.516;8.596;2023-01-15T16:17:57;5.40;99.90
61253;DHT22;47127;47.516;8.596;2023-01-15T16:20:24;5.30;99.90
61253;DHT22;47127;47.516;8.596;2023-01-15T16:23:00;5.10;99.90
61253;DHT22;47127;47.516;8.596;2023-01-15T16:25:32;5.20;99.90
61253;DHT22;47127;47.516;8.596;2023-01-15T16:27:59;5.20;99.90
61253;DHT22;47127;47.516;8.596;2023-01-15T16:30:26;5.10;99.90
61253;DHT22;47127;47.516;8.596;2023-01-15T16:32:52;5.10;99.90
61253;DHT22;47127;47.516;8.596;2023-01-15T16:35:21;5.10;99.90
61253;DHT22;47127;47.516;8.596;2023-01-15T16:37:49;5.10;99.90
61253;DHT22;47127;47.516;8.596;2023-01-15T16:40:23;5.00;99.90
61253;DHT22;47127;47.516;8.596;2023-01-15T16:43:03;5.10;99.90
61253;DHT22;47127;47.516;8.596;2023-01-15T16:45:30;5.00;99.90
61253;DHT22;47127;47.516;8.596;2023-01-15T16:50:36;5.00;99.90
61253;DHT22;47127;47.516;8.596;2023-01-15T16:53:03;5.00;99.90
61253;DHT22;47127;47.516;8.596;2023-01-15T16:55:36;4.90;99.90
61253;DHT22;47127;47.516;8.596;2023-01-15T17:00:38;5.00;99.90
61253;DHT22;47127;47.516;8.596;2023-01-15T17:03:21;4.90;99.90
61253;DHT22;47127;47.516;8.596;2023-01-15T17:05:49;5.00;99.90
61253;DHT22;47127;47.516;8.596;2023-01-15T17:08:23;5.00;99.90
61253;DHT22;47127;47.516;8.596;2023-01-15T17:10:59;5.10;99.90
61253;DHT22;47127;47.516;8.596;2023-01-15T17:13:34;5.00;99.90
61253;DHT22;47127;47.516;8.596;2023-01-15T17:16:20;5.00;99.90
61253;DHT22;47127;47.516;8.596;2023-01-15T17:18:47;5.00;99.90
61253;DHT22;47127;47.516;8.596;2023-01-15T17:21:18;4.90;99.90
61253;DHT22;47127;47.516;8.596;2023-01-15T17:23:45;4.90;99.90
61253;DHT22;47127;47.516;8.596;2023-01-15T17:26:16;4.90;99.90
61253;DHT22;47127;47.516;8.596;2023-01-15T17:28:42;4.90;99.90
61253;DHT22;47127;47.516;8.596;2023-01-15T17:31:31;4.90;99.90
61253;DHT22;47127;47.516;8.596;2023-01-15T17:33:59;4.90;99.90
61253;DHT22;47127;47.516;8.596;2023-01-15T17:36:25;4.90;99.90
61253;DHT22;47127;47.516;8.596;2023-01-15T17:38:52;4.80;99.90
61253;DHT22;47127;47.516;8.596;2023-01-15T17:41:19;4.80;99.90
61253;DHT22;47127;47.516;8.596;2023-01-15T17:43:45;4.90;99.90
61253;DHT22;47127;47.516;8.596;2023-01-15T17:46:11;4.90;99.90